createdAt,value
2023-03-28T00:00:58.180Z,1.00
2023-03-28T00:03:27.230Z,0.80
2023-03-28T00:05:57.263Z,0.60
2023-03-28T00:10:50.883Z,0.70
2023-03-28T00:13:20.087Z,0.57
2023-03-28T00:15:48.294Z,1.05
2023-03-28T00:18:15.451Z,0.52
2023-03-28T00:20:43.739Z,0.90
2023-03-28T00:23:12.170Z,0.60
2023-03-28T00:25:43.514Z,0.50
2023-03-28T00:28:10.491Z,0.50
2023-03-28T00:30:37.292Z,0.50
2023-03-28T00:33:07.339Z,0.80
2023-03-28T00:38:01.933Z,0.70
2023-03-28T00:40:30.839Z,0.60
2023-03-28T00:42:57.671Z,0.52
2023-03-28T00:45:24.510Z,0.55
2023-03-28T00:48:01.981Z,0.60
2023-03-28T00:50:34.246Z,0.90
2023-03-28T00:53:14.953Z,0.70
2023-03-28T00:55:47.432Z,0.70
2023-03-28T00:58:24.901Z,0.63
2023-03-28T01:00:52.080Z,0.85
2023-03-28T01:03:21.606Z,0.70
2023-03-28T01:05:48.992Z,0.90
2023-03-28T01:08:24.980Z,0.70
2023-03-28T01:10:51.704Z,0.80
2023-03-28T01:13:21.273Z,1.60
2023-03-28T01:15:51.598Z,0.70
2023-03-28T01:18:22.817Z,1.00
2023-03-28T01:21:33.743Z,0.98
2023-03-28T01:24:18.869Z,0.90
2023-03-28T01:27:07.686Z,1.30
2023-03-28T01:30:01.680Z,0.80
2023-03-28T01:32:40.868Z,1.30
2023-03-28T01:35:44.728Z,0.93
2023-03-28T01:38:54.971Z,0.90
2023-03-28T01:41:41.811Z,1.13
2023-03-28T01:44:24.904Z,1.05
2023-03-28T01:47:13.911Z,1.33
2023-03-28T01:49:57.149Z,0.70
2023-03-28T01:52:36.919Z,1.10
2023-03-28T01:55:30.180Z,1.55
2023-03-28T01:58:02.234Z,1.50
2023-03-28T02:00:37.280Z,1.27
2023-03-28T02:03:18.780Z,1.10
2023-03-28T02:05:48.330Z,1.13
2023-03-28T02:08:17.403Z,1.20
2023-03-28T02:10:46.190Z,1.30
2023-03-28T02:13:18.714Z,1.23
2023-03-28T02:15:50.571Z,1.30
2023-03-28T02:18:23.563Z,1.23
2023-03-28T02:20:56.773Z,1.10
2023-03-28T02:23:42.560Z,1.10
2023-03-28T02:26:10.134Z,0.95
2023-03-28T02:28:38.915Z,1.13
2023-03-28T02:31:07.183Z,1.30
2023-03-28T02:33:45.494Z,1.38
2023-03-28T02:36:29.897Z,1.35
2023-03-28T02:39:27.165Z,1.20
2023-03-28T02:42:06.941Z,1.23
2023-03-28T02:45:11.289Z,1.42
2023-03-28T02:47:59.673Z,1.30
2023-03-28T02:50:44.393Z,1.10
2023-03-28T02:53:33.478Z,1.42
2023-03-28T02:56:10.104Z,0.90
2023-03-28T02:58:48.834Z,1.37
2023-03-28T03:01:16.920Z,1.13
2023-03-28T03:03:44.006Z,1.10
2023-03-28T03:06:12.392Z,1.10
2023-03-28T03:08:39.132Z,1.33
2023-03-28T03:11:06.224Z,1.40
2023-03-28T03:13:32.922Z,1.10
2023-03-28T03:15:59.765Z,1.37
2023-03-28T03:18:27.509Z,1.03
2023-03-28T03:20:54.855Z,1.20
2023-03-28T03:23:21.644Z,1.60
2023-03-28T03:25:50.590Z,1.42
2023-03-28T03:28:17.384Z,1.70
2023-03-28T03:30:44.092Z,1.83
2023-03-28T03:33:11.395Z,1.55
2023-03-28T03:35:45.762Z,1.80
2023-03-28T03:38:13.341Z,1.20
2023-03-28T03:40:40.303Z,1.25
2023-03-28T03:43:07.023Z,1.47
2023-03-28T03:45:33.798Z,1.30
2023-03-28T03:48:00.824Z,1.50
2023-03-28T03:50:27.640Z,1.48
2023-03-28T03:52:54.282Z,1.70
2023-03-28T03:55:20.962Z,1.60
2023-03-28T03:57:47.959Z,1.75
2023-03-28T04:00:15.065Z,1.65
2023-03-28T04:02:41.770Z,1.50
2023-03-28T04:05:09.309Z,2.03
2023-03-28T04:07:37.371Z,1.50
2023-03-28T04:10:04.831Z,2.10
2023-03-28T04:12:31.581Z,1.90
2023-03-28T04:14:58.453Z,1.75
2023-03-28T04:17:28.771Z,1.80
2023-03-28T04:19:56.398Z,2.85
2023-03-28T04:22:23.903Z,2.03
2023-03-28T04:24:53.497Z,1.88
2023-03-28T04:27:20.234Z,1.63
2023-03-28T04:29:46.925Z,1.90
2023-03-28T04:32:13.747Z,1.70
2023-03-28T04:34:40.559Z,2.00
2023-03-28T04:37:09.140Z,1.90
2023-03-28T04:39:35.933Z,3.17
2023-03-28T04:42:05.258Z,1.75
2023-03-28T04:44:32.139Z,1.95
2023-03-28T04:46:59.518Z,2.20
2023-03-28T04:49:26.653Z,2.05
2023-03-28T04:51:53.435Z,1.98
2023-03-28T04:54:20.508Z,1.60
2023-03-28T04:56:51.016Z,1.80
2023-03-28T04:59:18.348Z,1.90
2023-03-28T05:01:49.600Z,1.67
2023-03-28T05:04:17.863Z,2.17
2023-03-28T05:06:49.597Z,3.00
2023-03-28T05:09:16.700Z,3.28
2023-03-28T05:11:44.311Z,2.10
2023-03-28T05:14:11.534Z,1.67
2023-03-28T05:16:38.208Z,2.30
2023-03-28T05:19:05.006Z,2.17
2023-03-28T05:21:31.724Z,1.80
2023-03-28T05:23:58.541Z,1.80
2023-03-28T05:26:25.683Z,2.50
2023-03-28T05:28:52.382Z,2.77
2023-03-28T05:31:19.255Z,1.83
2023-03-28T05:33:46.034Z,2.45
2023-03-28T05:36:13.110Z,2.10
2023-03-28T05:38:39.811Z,2.70
2023-03-28T05:41:06.890Z,2.85
2023-03-28T05:43:33.630Z,2.90
2023-03-28T05:46:00.460Z,2.95
2023-03-28T05:48:27.172Z,2.20
2023-03-28T05:50:53.832Z,2.30
2023-03-28T05:53:20.528Z,2.55
2023-03-28T05:55:48.573Z,2.83
2023-03-28T05:58:16.186Z,2.67
2023-03-28T06:00:44.720Z,2.95
2023-03-28T06:03:16.756Z,2.00
2023-03-28T06:05:44.755Z,2.28
2023-03-28T06:08:11.898Z,1.70
2023-03-28T06:10:38.820Z,2.10
2023-03-28T06:13:05.683Z,2.22
2023-03-28T06:15:33.003Z,2.28
2023-03-28T06:18:00.106Z,1.70
2023-03-28T06:20:26.946Z,1.77
2023-03-28T06:22:53.667Z,1.75
2023-03-28T06:25:20.337Z,1.67
2023-03-28T06:27:47.231Z,1.65
2023-03-28T06:30:14.414Z,1.77
2023-03-28T06:32:41.120Z,1.98
2023-03-28T06:35:08.269Z,1.92
2023-03-28T06:37:35.008Z,1.65
2023-03-28T06:40:01.703Z,2.15
2023-03-28T06:42:28.457Z,1.90
2023-03-28T06:44:55.191Z,2.15
2023-03-28T06:47:21.819Z,2.03
2023-03-28T06:49:48.529Z,1.80
2023-03-28T06:52:15.379Z,1.98
2023-03-28T06:54:42.046Z,1.38
2023-03-28T06:57:08.903Z,2.13
2023-03-28T06:59:35.631Z,2.10
2023-03-28T07:02:02.438Z,1.70
2023-03-28T07:04:30.166Z,2.10
2023-03-28T07:06:56.796Z,2.17
2023-03-28T07:09:23.443Z,2.28
2023-03-28T07:11:50.257Z,1.70
2023-03-28T07:14:17.026Z,1.85
2023-03-28T07:16:43.730Z,1.65
2023-03-28T07:19:10.826Z,1.95
2023-03-28T07:21:37.662Z,2.38
2023-03-28T07:24:04.534Z,1.90
2023-03-28T07:26:31.327Z,2.15
2023-03-28T07:28:58.120Z,1.63
2023-03-28T07:31:25.723Z,1.42
2023-03-28T07:33:52.441Z,1.67
2023-03-28T07:36:21.749Z,1.60
2023-03-28T07:38:49.469Z,1.63
2023-03-28T07:41:16.562Z,1.77
2023-03-28T07:43:43.335Z,1.88
2023-03-28T07:46:14.034Z,1.63
2023-03-28T07:48:41.302Z,1.83
2023-03-28T07:51:09.766Z,2.10
2023-03-28T07:53:37.758Z,1.48
2023-03-28T07:56:06.033Z,1.30
2023-03-28T07:58:32.804Z,1.40
2023-03-28T08:01:06.158Z,1.98
2023-03-28T08:03:33.064Z,1.27
2023-03-28T08:06:20.129Z,1.73
2023-03-28T08:08:54.875Z,1.50
2023-03-28T08:11:21.593Z,1.70
2023-03-28T08:13:48.195Z,1.35
2023-03-28T08:16:14.993Z,1.75
2023-03-28T08:18:41.604Z,1.15
2023-03-28T08:21:08.246Z,1.70
2023-03-28T08:23:34.967Z,1.40
2023-03-28T08:26:06.158Z,1.20
2023-03-28T08:28:34.906Z,1.67
2023-03-28T08:31:02.720Z,1.30
2023-03-28T08:33:29.777Z,1.00
2023-03-28T08:35:56.983Z,1.00
2023-03-28T08:38:24.319Z,1.00
2023-03-28T08:41:17.333Z,0.93
2023-03-28T08:44:02.212Z,1.10
2023-03-28T08:46:30.885Z,0.75
2023-03-28T08:48:59.691Z,0.80
2023-03-28T08:51:31.924Z,0.95
2023-03-28T08:54:22.962Z,0.98
2023-03-28T08:56:55.781Z,0.93
2023-03-28T08:59:48.541Z,1.10
2023-03-28T09:02:21.893Z,0.63
2023-03-28T09:04:49.591Z,0.88
2023-03-28T09:07:31.288Z,0.80
2023-03-28T09:10:40.766Z,1.23
2023-03-28T09:13:23.989Z,0.85
2023-03-28T09:16:19.248Z,1.10
2023-03-28T09:19:15.600Z,1.20
2023-03-28T09:22:14.723Z,1.20
2023-03-28T09:24:59.353Z,1.00
2023-03-28T09:27:33.007Z,1.58
2023-03-28T09:30:28.836Z,1.02
2023-03-28T09:32:59.192Z,0.80
2023-03-28T09:35:28.482Z,0.90
2023-03-28T09:38:09.963Z,0.90
2023-03-28T09:40:42.775Z,1.27
2023-03-28T09:43:18.848Z,1.10
2023-03-28T09:46:23.657Z,1.08
2023-03-28T09:48:50.526Z,0.95
2023-03-28T09:51:19.594Z,1.02
2023-03-28T09:53:46.632Z,1.38
2023-03-28T09:56:36.187Z,1.20
2023-03-28T09:59:05.110Z,1.20
2023-03-28T10:01:41.944Z,1.25
2023-03-28T10:04:15.653Z,0.90
2023-03-28T10:06:43.860Z,0.90
2023-03-28T10:09:24.201Z,1.00
2023-03-28T10:11:59.823Z,1.00
2023-03-28T10:14:33.932Z,1.38
2023-03-28T10:17:06.556Z,1.73
2023-03-28T10:19:37.192Z,1.08
2023-03-28T10:22:15.472Z,1.35
2023-03-28T10:24:45.840Z,1.00
2023-03-28T10:27:40.013Z,0.80
2023-03-28T10:30:25.491Z,0.80
2023-03-28T10:33:17.884Z,1.10
2023-03-28T10:35:47.627Z,0.93
2023-03-28T10:38:17.227Z,0.70
2023-03-28T10:40:52.063Z,0.95
2023-03-28T10:43:18.977Z,0.90
2023-03-28T10:45:51.015Z,0.70
2023-03-28T10:48:21.062Z,0.85
2023-03-28T10:50:51.242Z,0.95
2023-03-28T10:56:24.131Z,0.60
2023-03-28T10:59:06.468Z,0.88
2023-03-28T11:01:43.842Z,1.33
2023-03-28T11:04:40.471Z,1.00
2023-03-28T11:07:12.960Z,1.13
2023-03-28T11:09:49.906Z,1.05
2023-03-28T11:15:10.763Z,0.95
2023-03-28T11:18:17.571Z,0.80
2023-03-28T11:21:08.482Z,1.02
2023-03-28T11:23:48.344Z,1.17
2023-03-28T11:26:23.456Z,1.70
2023-03-28T11:29:13.492Z,0.80
2023-03-28T11:31:49.415Z,2.30
2023-03-28T11:34:25.783Z,1.10
2023-03-28T11:37:07.530Z,0.80
2023-03-28T11:39:42.759Z,0.88
2023-03-28T11:42:14.537Z,1.00
2023-03-28T11:44:59.208Z,0.98
2023-03-28T11:47:32.654Z,1.20
2023-03-28T11:50:15.110Z,0.77
2023-03-28T11:52:48.325Z,1.10
2023-03-28T11:55:28.525Z,1.98
2023-03-28T12:00:34.791Z,1.52
2023-03-28T12:03:31.605Z,1.20
2023-03-28T12:06:09.021Z,1.20
2023-03-28T12:08:59.119Z,1.35
2023-03-28T12:12:06.157Z,1.23
2023-03-28T12:15:05.678Z,0.98
2023-03-28T12:17:41.992Z,0.90
2023-03-28T12:20:15.798Z,0.90
2023-03-28T12:22:47.602Z,0.80
2023-03-28T12:25:26.108Z,1.10
2023-03-28T12:28:27.248Z,0.98
2023-03-28T12:31:10.631Z,0.90
2023-03-28T12:34:08.983Z,1.10
2023-03-28T12:37:05.667Z,1.10
2023-03-28T12:39:38.706Z,0.80
2023-03-28T12:42:09.612Z,0.77
2023-03-28T12:44:51.933Z,0.80
2023-03-28T12:47:23.343Z,1.17
2023-03-28T12:49:56.597Z,1.00
2023-03-28T12:52:31.933Z,0.90
2023-03-28T12:55:07.212Z,0.82
2023-03-28T12:57:46.189Z,0.80
2023-03-28T13:00:31.806Z,1.00
2023-03-28T13:03:16.423Z,0.95
2023-03-28T13:06:09.024Z,1.55
2023-03-28T13:09:26.832Z,1.10
2023-03-28T13:12:20.324Z,0.90
2023-03-28T13:15:02.772Z,0.93
2023-03-28T13:17:32.968Z,0.90
2023-03-28T13:20:11.522Z,0.90
2023-03-28T13:22:48.722Z,0.90
2023-03-28T13:25:32.612Z,1.30
2023-03-28T13:28:19.434Z,0.95
2023-03-28T13:30:46.852Z,1.23
2023-03-28T13:33:35.091Z,0.88
2023-03-28T13:36:01.946Z,0.90
2023-03-28T13:38:28.741Z,0.90
2023-03-28T13:41:01.078Z,0.80
2023-03-28T13:43:37.709Z,1.13
2023-03-28T13:46:27.248Z,0.88
2023-03-28T13:49:08.168Z,0.93
2023-03-28T13:51:53.598Z,0.88
2023-03-28T13:54:21.274Z,0.70
2023-03-28T13:56:49.691Z,0.70
2023-03-28T13:59:32.022Z,0.80
2023-03-28T14:02:01.204Z,0.70
2023-03-28T14:04:30.917Z,0.80
2023-03-28T14:06:58.389Z,0.90
2023-03-28T14:09:27.725Z,0.60
2023-03-28T14:12:11.349Z,0.90
2023-03-28T14:14:41.657Z,0.90
2023-03-28T14:17:13.272Z,0.90
